Time;durP1;ratioP1;P1;durP2;ratioP2;P2;SDS_P1;SDS_P2;PMS_P1;PMS_P2;Temp;Humidity;BMP_temperature;BMP_pressure;BME280_temperature;BME280_humidity;BME280_pressure;Samples;Min_cycle;Max_cycle;Signal;HPM_P1;HPM_P2
2023/05/29 00:02:08;;;;;;;18.70;17.30;;;11.50;99.90;;;;;;4811381;29;20209;-45
2023/05/29 00:04:33;;;;;;;18.77;17.40;;;11.40;99.90;;;;;;4812918;29;20190;-52
2023/05/29 00:06:59;;;;;;;18.37;16.97;;;11.40;99.90;;;;;;4811642;29;20232;-45
2023/05/29 00:09:25;;;;;;;17.23;16.13;;;11.30;99.90;;;;;;4812673;29;20270;-42
2023/05/29 00:11:52;;;;;;;17.40;16.00;;;11.20;99.90;;;;;;4811977;29;20201;-43
2023/05/29 00:14:23;;;;;;;18.23;16.93;;;11.20;99.90;;;;;;4812151;29;20450;-44
2023/05/29 00:16:50;;;;;;;17.50;16.30;;;11.10;99.90;;;;;;4812688;29;21046;-45
2023/05/29 00:19:21;;;;;;;18.60;17.20;;;11.00;99.90;;;;;;4812553;29;20430;-44
2023/05/29 00:21:48;;;;;;;17.03;15.80;;;11.00;99.90;;;;;;4812533;29;20768;-42
2023/05/29 00:24:17;;;;;;;17.97;16.57;;;11.00;99.90;;;;;;4812524;29;20463;-44
2023/05/29 00:26:43;;;;;;;17.67;16.47;;;10.90;99.90;;;;;;4811200;29;20454;-46
2023/05/29 00:29:09;;;;;;;16.00;15.00;;;10.90;99.90;;;;;;4812542;29;20537;-45
2023/05/29 00:31:36;;;;;;;16.97;15.67;;;10.80;99.90;;;;;;4796309;29;20925;-44
2023/05/29 00:34:02;;;;;;;16.83;15.53;;;10.80;99.90;;;;;;4812271;29;20462;-44
2023/05/29 00:36:29;;;;;;;16.33;15.13;;;10.70;99.90;;;;;;4812865;29;20485;-45
2023/05/29 00:38:55;;;;;;;17.40;16.00;;;10.70;99.90;;;;;;4812521;29;20269;-42
2023/05/29 00:41:20;;;;;;;17.67;16.17;;;10.60;99.90;;;;;;4812129;29;20972;-45
2023/05/29 00:43:46;;;;;;;17.47;16.17;;;10.60;99.90;;;;;;4812455;29;20449;-50
2023/05/29 00:46:14;;;;;;;16.23;15.23;;;10.60;99.90;;;;;;4812038;29;20261;-44
2023/05/29 00:48:41;;;;;;;16.70;15.50;;;10.50;99.90;;;;;;4812506;29;20197;-42
2023/05/29 00:51:08;;;;;;;16.33;15.23;;;10.50;99.90;;;;;;4812271;29;20425;-43
2023/05/29 00:53:34;;;;;;;17.70;16.30;;;10.40;99.90;;;;;;4812474;29;20438;-42
2023/05/29 00:56:01;;;;;;;16.87;15.57;;;10.40;99.90;;;;;;4810509;29;20565;-44
2023/05/29 00:58:27;;;;;;;16.77;15.57;;;10.40;99.90;;;;;;4812136;29;20578;-44
2023/05/29 01:00:53;;;;;;;16.70;15.50;;;10.40;99.90;;;;;;4812798;29;21002;-46
2023/05/29 01:03:22;;;;;;;16.40;15.20;;;10.30;99.90;;;;;;4812200;29;20517;-46
2023/05/29 01:05:48;;;;;;;16.80;15.60;;;10.20;99.90;;;;;;4796048;29;20435;-41
2023/05/29 01:08:14;;;;;;;17.23;16.00;;;10.20;99.90;;;;;;4812101;29;20436;-43
2023/05/29 01:10:42;;;;;;;15.57;14.50;;;10.10;99.90;;;;;;4812094;29;20186;-42
2023/05/29 01:13:26;;;;;;;16.20;15.10;;;10.10;99.90;;;;;;4812082;29;20194;-42
2023/05/29 01:16:03;;;;;;;16.77;15.57;;;10.00;99.90;;;;;;4815456;29;20483;-44
2023/05/29 01:18:47;;;;;;;15.83;14.70;;;10.00;99.90;;;;;;4814750;29;20805;-43
2023/05/29 01:21:22;;;;;;;16.27;15.17;;;9.90;99.90;;;;;;4815011;29;20426;-43
2023/05/29 01:24:21;;;;;;;16.60;15.50;;;9.90;99.90;;;;;;4814442;29;20481;-45
2023/05/29 01:26:51;;;;;;;16.70;15.60;;;9.90;99.90;;;;;;4814694;29;20450;-40
2023/05/29 01:29:24;;;;;;;16.90;15.70;;;9.80;99.90;;;;;;4815116;29;20439;-42
2023/05/29 01:31:51;;;;;;;17.17;15.83;;;9.80;99.90;;;;;;4815233;29;20430;-43
2023/05/29 01:34:17;;;;;;;16.20;15.10;;;9.70;99.90;;;;;;4815424;29;20444;-44
2023/05/29 01:36:42;;;;;;;16.00;14.73;;;9.70;99.90;;;;;;4815174;29;20477;-42
2023/05/29 01:39:09;;;;;;;16.37;15.20;;;9.60;99.90;;;;;;4815172;29;21251;-43
2023/05/29 01:41:35;;;;;;;16.40;15.33;;;9.60;99.90;;;;;;4814867;29;20231;-47
2023/05/29 01:44:04;;;;;;;15.83;14.73;;;9.60;99.90;;;;;;4814912;29;20916;-43
2023/05/29 01:46:30;;;;;;;15.70;14.50;;;9.60;99.90;;;;;;4814607;29;20824;-44
2023/05/29 01:48:56;;;;;;;15.67;14.57;;;9.50;99.90;;;;;;4814937;29;20434;-42
2023/05/29 01:51:22;;;;;;;15.43;14.43;;;9.50;99.90;;;;;;4814871;29;20191;-47
2023/05/29 01:53:47;;;;;;;15.63;14.53;;;9.40;99.90;;;;;;4813778;29;20446;-49
2023/05/29 01:56:13;;;;;;;16.10;14.73;;;9.40;99.90;;;;;;4814366;29;20735;-41
2023/05/29 01:58:40;;;;;;;15.30;14.37;;;9.30;99.90;;;;;;4814242;29;20192;-42
2023/05/29 02:01:07;;;;;;;15.97;14.87;;;9.30;99.90;;;;;;4814377;29;20525;-43
2023/05/29 02:03:33;;;;;;;15.37;14.23;;;9.30;99.90;;;;;;4814900;29;20471;-42
2023/05/29 02:06:00;;;;;;;15.80;14.57;;;9.20;99.90;;;;;;4814806;29;20434;-48
2023/05/29 02:08:26;;;;;;;15.63;14.63;;;9.20;99.90;;;;;;4814560;29;20446;-43
2023/05/29 02:10:51;;;;;;;16.30;15.20;;;9.20;99.90;;;;;;4814657;29;20998;-44
2023/05/29 02:13:17;;;;;;;15.73;14.63;;;9.10;99.90;;;;;;4814546;29;20473;-41
2023/05/29 02:15:43;;;;;;;16.10;15.00;;;9.10;99.90;;;;;;4814583;29;20599;-43
2023/05/29 02:18:12;;;;;;;15.60;14.50;;;9.10;99.90;;;;;;4814495;29;20248;-42
2023/05/29 02:20:38;;;;;;;15.60;14.50;;;9.00;99.90;;;;;;4814730;29;20869;-42
2023/05/29 02:23:03;;;;;;;15.27;14.17;;;9.00;99.90;;;;;;4813793;29;21206;-42
2023/05/29 02:25:29;;;;;;;14.20;13.20;;;9.00;99.90;;;;;;4810484;29;20456;-44
2023/05/29 02:27:55;;;;;;;15.17;14.10;;;9.00;99.90;;;;;;4813386;29;20207;-43
2023/05/29 02:30:20;;;;;;;15.27;14.23;;;9.00;99.90;;;;;;4813543;29;20204;-43
2023/05/29 02:32:46;;;;;;;16.43;14.90;;;9.00;99.90;;;;;;4813269;29;20187;-41
2023/05/29 02:35:14;;;;;;;15.80;14.80;;;8.90;99.90;;;;;;4813452;29;20200;-42
2023/05/29 02:37:40;;;;;;;16.30;15.17;;;8.90;99.90;;;;;;4813203;29;20216;-43
2023/05/29 02:40:08;;;;;;;15.60;14.60;;;8.80;99.90;;;;;;4812919;29;20449;-44
2023/05/29 02:42:34;;;;;;;15.90;14.80;;;8.80;99.90;;;;;;4814259;29;20433;-46
2023/05/29 02:44:59;;;;;;;16.30;15.10;;;8.80;99.90;;;;;;4811989;29;20452;-46
2023/05/29 02:47:25;;;;;;;15.33;14.37;;;8.80;99.90;;;;;;4813053;29;20431;-49
2023/05/29 02:49:51;;;;;;;15.30;14.20;;;8.70;99.90;;;;;;4813408;29;21253;-41
2023/05/29 02:52:16;;;;;;;15.10;14.10;;;8.70;99.90;;;;;;4813212;29;20273;-42
2023/05/29 02:54:42;;;;;;;16.77;15.50;;;8.70;99.90;;;;;;4813119;29;20202;-42
2023/05/29 02:57:08;;;;;;;15.10;14.20;;;8.60;99.90;;;;;;4812962;29;20213;-43
2023/05/29 02:59:33;;;;;;;15.50;14.50;;;8.60;99.90;;;;;;4812991;29;20202;-43
2023/05/29 03:01:59;;;;;;;15.67;14.43;;;8.60;99.90;;;;;;4813024;29;20198;-41
2023/05/29 03:04:26;;;;;;;15.30;14.13;;;8.60;99.90;;;;;;4813109;29;20186;-41
2023/05/29 03:06:52;;;;;;;14.80;13.70;;;8.60;99.90;;;;;;4813167;29;20459;-41
2023/05/29 03:09:18;;;;;;;14.77;13.77;;;8.50;99.90;;;;;;4813126;29;20435;-45
2023/05/29 03:11:44;;;;;;;16.13;14.93;;;8.50;99.90;;;;;;4813008;29;20435;-42
2023/05/29 03:14:10;;;;;;;15.50;14.30;;;8.60;99.90;;;;;;4812223;29;20213;-42
2023/05/29 03:16:38;;;;;;;14.80;13.90;;;8.50;99.90;;;;;;4813032;29;20475;-42
2023/05/29 03:19:03;;;;;;;15.93;14.73;;;8.50;99.90;;;;;;4812682;29;20441;-48
2023/05/29 03:21:31;;;;;;;15.53;14.43;;;8.50;99.90;;;;;;4812888;29;20922;-42
2023/05/29 03:23:56;;;;;;;15.37;14.30;;;8.50;99.90;;;;;;4777350;29;1085308;-43
2023/05/29 03:26:22;;;;;;;15.60;14.50;;;8.50;99.90;;;;;;4813167;29;20194;-42
2023/05/29 03:28:47;;;;;;;14.63;13.57;;;8.50;99.90;;;;;;4813504;29;20264;-42
2023/05/29 03:31:13;;;;;;;15.93;14.73;;;8.50;99.90;;;;;;4813225;29;20359;-43
2023/05/29 03:33:39;;;;;;;14.00;13.07;;;8.40;99.90;;;;;;4813747;29;20746;-42
2023/05/29 03:36:05;;;;;;;15.33;14.30;;;8.40;99.90;;;;;;4812912;29;20541;-42
2023/05/29 03:38:30;;;;;;;15.33;14.27;;;8.40;99.90;;;;;;4813115;29;20230;-42
2023/05/29 03:40:56;;;;;;;15.60;14.40;;;8.30;99.90;;;;;;4813214;29;20411;-43
2023/05/29 03:43:22;;;;;;;15.63;14.53;;;8.30;99.90;;;;;;4812409;29;20535;-41
2023/05/29 03:45:47;;;;;;;15.80;14.67;;;8.40;99.90;;;;;;4813210;29;20197;-42
2023/05/29 03:48:14;;;;;;;15.40;14.40;;;8.30;99.90;;;;;;4813099;29;20191;-44
2023/05/29 03:50:40;;;;;;;14.90;13.90;;;8.30;99.90;;;;;;4813121;29;20635;-47
2023/05/29 03:53:06;;;;;;;15.30;14.17;;;8.30;99.90;;;;;;4812889;29;20421;-44
2023/05/29 03:55:32;;;;;;;15.40;14.30;;;8.40;99.90;;;;;;4811618;29;20197;-41
2023/05/29 03:57:57;;;;;;;15.27;14.17;;;8.40;99.90;;;;;;4812701;29;20218;-45
2023/05/29 04:00:23;;;;;;;14.80;13.70;;;8.40;99.90;;;;;;4813036;29;20300;-46
2023/05/29 04:02:48;;;;;;;13.47;12.50;;;8.50;99.90;;;;;;4813087;29;20684;-43
2023/05/29 04:05:14;;;;;;;14.77;13.73;;;8.50;99.90;;;;;;4813174;29;20306;-41
2023/05/29 04:07:40;;;;;;;14.10;13.10;;;8.50;99.90;;;;;;4812595;29;20198;-46
2023/05/29 04:10:06;;;;;;;14.53;13.53;;;8.60;99.90;;;;;;4812949;29;20195;-45
2023/05/29 04:12:35;;;;;;;14.70;13.67;;;8.60;99.90;;;;;;4812548;29;20190;-42
2023/05/29 04:15:00;;;;;;;14.93;13.93;;;8.70;99.90;;;;;;4811620;29;20440;-43
2023/05/29 04:17:26;;;;;;;15.07;14.07;;;8.70;99.90;;;;;;4812282;29;20536;-44
2023/05/29 04:19:52;;;;;;;15.40;14.30;;;8.80;99.90;;;;;;4812926;29;20190;-45
2023/05/29 04:22:19;;;;;;;14.80;13.70;;;8.80;99.90;;;;;;4812599;29;20309;-44
2023/05/29 04:24:45;;;;;;;15.40;14.30;;;8.80;99.90;;;;;;4812521;29;20268;-42
2023/05/29 04:27:13;;;;;;;14.27;13.20;;;8.80;99.90;;;;;;4812470;29;20446;-43
2023/05/29 04:29:42;;;;;;;15.27;14.03;;;8.90;99.90;;;;;;4813109;29;20463;-41
2023/05/29 04:32:09;;;;;;;14.90;13.80;;;8.90;99.90;;;;;;4812741;29;20472;-42
2023/05/29 04:34:35;;;;;;;14.43;13.53;;;8.90;99.90;;;;;;4812428;29;20443;-45
2023/05/29 04:37:04;;;;;;;14.87;13.90;;;9.00;99.90;;;;;;4812494;29;20482;-43
2023/05/29 04:39:31;;;;;;;15.00;14.00;;;9.00;99.90;;;;;;4812465;29;20420;-40
2023/05/29 04:41:58;;;;;;;15.60;14.60;;;9.00;99.90;;;;;;4811075;29;20427;-44
2023/05/29 04:44:29;;;;;;;15.17;14.17;;;9.10;99.90;;;;;;4810469;29;20506;-43
2023/05/29 04:46:56;;;;;;;14.70;13.70;;;9.10;99.90;;;;;;4812650;29;20431;-44
2023/05/29 04:49:22;;;;;;;15.87;14.67;;;9.20;99.90;;;;;;4811607;29;20443;-42
2023/05/29 04:51:48;;;;;;;14.87;13.87;;;9.30;99.90;;;;;;4812362;29;20432;-44
2023/05/29 04:54:13;;;;;;;14.57;13.57;;;9.30;99.90;;;;;;4811174;29;20210;-45
2023/05/29 04:56:43;;;;;;;14.77;13.70;;;9.30;99.90;;;;;;4812339;29;20218;-44
2023/05/29 04:59:09;;;;;;;14.90;13.80;;;9.40;99.90;;;;;;4812382;29;20243;-44
2023/05/29 05:01:34;;;;;;;14.93;13.90;;;9.50;99.90;;;;;;4810584;29;20622;-42
2023/05/29 05:04:00;;;;;;;14.10;13.10;;;9.50;99.90;;;;;;4812210;29;20387;-45
2023/05/29 05:06:26;;;;;;;13.80;12.90;;;9.60;99.90;;;;;;4812248;29;20184;-41
2023/05/29 05:08:52;;;;;;;15.23;13.73;;;9.60;99.90;;;;;;4812451;29;20480;-44
2023/05/29 05:11:18;;;;;;;14.47;13.37;;;9.70;99.90;;;;;;4812300;29;20191;-44
2023/05/29 05:13:44;;;;;;;15.27;14.20;;;9.70;99.90;;;;;;4811750;29;20434;-41
2023/05/29 05:16:09;;;;;;;15.00;14.00;;;9.80;99.90;;;;;;4812214;29;20497;-44
2023/05/29 05:18:36;;;;;;;14.37;13.37;;;9.80;99.90;;;;;;4812133;29;20199;-44
2023/05/29 05:21:03;;;;;;;15.70;14.60;;;9.90;99.90;;;;;;4812000;29;20183;-48
2023/05/29 05:23:30;;;;;;;15.33;14.30;;;10.00;99.90;;;;;;4811255;29;20504;-40
2023/05/29 05:25:55;;;;;;;13.83;12.93;;;10.10;99.90;;;;;;4810914;29;20486;-47
2023/05/29 05:28:21;;;;;;;15.60;14.40;;;10.20;99.90;;;;;;4811285;29;20545;-47
2023/05/29 05:30:47;;;;;;;13.43;12.63;;;10.20;99.90;;;;;;4811881;29;20205;-46
2023/05/29 05:33:13;;;;;;;14.43;13.53;;;10.30;99.90;;;;;;4811563;29;20473;-45
2023/05/29 05:35:38;;;;;;;13.77;12.93;;;10.30;99.90;;;;;;4811974;29;20346;-42
2023/05/29 05:38:04;;;;;;;14.07;13.13;;;10.40;99.90;;;;;;4811863;29;20214;-44
2023/05/29 05:40:30;;;;;;;15.13;14.13;;;10.50;99.90;;;;;;4812503;29;20202;-44
2023/05/29 05:42:55;;;;;;;14.47;13.47;;;10.60;99.90;;;;;;4811852;29;20489;-43
2023/05/29 05:45:21;;;;;;;14.77;13.77;;;10.60;99.90;;;;;;4810238;29;20749;-44
2023/05/29 05:47:47;;;;;;;14.60;13.63;;;10.70;99.90;;;;;;4811571;29;20215;-43
2023/05/29 05:50:13;;;;;;;13.43;12.53;;;10.80;99.90;;;;;;4811728;29;20194;-46
2023/05/29 05:52:39;;;;;;;13.90;12.80;;;10.90;99.90;;;;;;4810115;29;20446;-42
2023/05/29 05:55:04;;;;;;;14.90;13.70;;;11.10;99.90;;;;;;4811793;29;20198;-43
2023/05/29 05:57:32;;;;;;;14.17;13.17;;;11.20;99.90;;;;;;4811770;29;20694;-41
2023/05/29 05:59:58;;;;;;;14.70;13.70;;;11.30;99.90;;;;;;4812513;29;20878;-44
2023/05/29 06:02:24;;;;;;;14.77;13.77;;;11.40;99.90;;;;;;4815009;29;20776;-43
2023/05/29 06:04:50;;;;;;;13.60;12.90;;;11.60;99.90;;;;;;4813393;29;20431;-46
2023/05/29 06:07:16;;;;;;;14.77;13.77;;;11.70;99.90;;;;;;4815071;29;20530;-44
2023/05/29 06:09:42;;;;;;;14.93;14.00;;;11.80;99.90;;;;;;4814681;29;20433;-45
2023/05/29 06:12:08;;;;;;;14.50;13.63;;;11.90;99.90;;;;;;4798704;29;20202;-42
2023/05/29 06:14:34;;;;;;;14.77;13.77;;;11.90;99.90;;;;;;4813675;29;20613;-43
2023/05/29 06:17:00;;;;;;;14.57;13.67;;;12.00;99.90;;;;;;4814484;29;20470;-46
2023/05/29 06:19:26;;;;;;;15.63;14.53;;;12.00;99.90;;;;;;4814549;29;20438;-44
2023/05/29 06:21:51;;;;;;;14.00;13.17;;;12.10;99.90;;;;;;4812722;29;20805;-47
2023/05/29 06:24:17;;;;;;;14.07;13.17;;;12.20;99.90;;;;;;4814227;29;20642;-43
2023/05/29 06:26:42;;;;;;;13.93;13.07;;;12.30;99.90;;;;;;4814543;29;20545;-45
2023/05/29 06:29:08;;;;;;;14.17;13.27;;;12.40;99.90;;;;;;4814308;29;20351;-44
2023/05/29 06:31:33;;;;;;;14.20;13.37;;;12.50;99.90;;;;;;4814497;29;20205;-44
2023/05/29 06:33:59;;;;;;;13.33;12.53;;;12.60;99.90;;;;;;4814280;29;20649;-43
2023/05/29 06:36:25;;;;;;;14.37;13.47;;;12.80;99.90;;;;;;4814245;29;20217;-43
2023/05/29 06:38:51;;;;;;;14.53;13.63;;;12.90;99.90;;;;;;4814308;29;20197;-43
2023/05/29 06:41:17;;;;;;;14.00;13.20;;;13.00;99.90;;;;;;4814002;29;20475;-50
2023/05/29 06:43:43;;;;;;;14.47;13.57;;;13.20;99.90;;;;;;4813129;29;20549;-44
2023/05/29 06:46:09;;;;;;;14.30;13.40;;;13.30;99.90;;;;;;4813952;29;20691;-43
2023/05/29 06:48:35;;;;;;;14.37;13.57;;;13.40;99.90;;;;;;4814266;29;20197;-42
2023/05/29 06:51:11;;;;;;;13.30;12.50;;;13.60;99.90;;;;;;4814078;29;20504;-43
2023/05/29 06:53:38;;;;;;;13.73;12.90;;;13.60;99.90;;;;;;4813810;29;20487;-43
2023/05/29 06:56:05;;;;;;;14.90;13.93;;;13.80;99.90;;;;;;4814018;29;20526;-45
2023/05/29 06:58:31;;;;;;;14.37;13.37;;;13.90;99.90;;;;;;4814114;29;20569;-43
2023/05/29 07:00:57;;;;;;;14.73;13.90;;;14.00;99.90;;;;;;4813769;29;20510;-43
2023/05/29 07:03:26;;;;;;;14.37;13.47;;;14.10;99.90;;;;;;4814165;29;20922;-44
2023/05/29 07:05:52;;;;;;;14.67;13.77;;;14.30;99.90;;;;;;4814215;29;20927;-43
2023/05/29 07:08:17;;;;;;;14.83;14.00;;;14.30;99.90;;;;;;4809796;29;20453;-44
2023/05/29 07:10:43;;;;;;;14.17;13.23;;;14.50;99.90;;;;;;4808904;29;20571;-48
2023/05/29 07:13:09;;;;;;;14.53;13.47;;;14.60;99.60;;;;;;4813288;29;20246;-46
2023/05/29 07:15:34;;;;;;;14.50;13.60;;;14.80;99.40;;;;;;4813157;29;20194;-43
2023/05/29 07:18:00;;;;;;;14.10;13.20;;;15.00;98.90;;;;;;4813815;29;20233;-49
2023/05/29 07:20:26;;;;;;;14.93;13.83;;;15.20;98.10;;;;;;4813603;29;20225;-48
2023/05/29 07:22:52;;;;;;;14.67;13.70;;;15.30;98.10;;;;;;4813629;29;20293;-46
2023/05/29 07:25:17;;;;;;;14.27;13.33;;;15.50;97.50;;;;;;4812725;29;20459;-44
2023/05/29 07:27:43;;;;;;;14.53;13.73;;;15.60;96.30;;;;;;4813091;29;21215;-45
2023/05/29 07:30:09;;;;;;;14.50;13.50;;;15.80;96.80;;;;;;4810297;29;20297;-42
2023/05/29 07:32:34;;;;;;;14.50;13.70;;;16.00;95.70;;;;;;4812120;29;20194;-44
2023/05/29 07:35:00;;;;;;;14.20;13.30;;;16.20;95.00;;;;;;4813664;29;20445;-44
2023/05/29 07:37:26;;;;;;;14.57;13.77;;;16.30;94.90;;;;;;4813594;29;20209;-48
2023/05/29 07:39:51;;;;;;;14.40;13.50;;;16.30;94.00;;;;;;4813896;29;20238;-43
2023/05/29 07:42:17;;;;;;;13.93;13.10;;;16.50;94.00;;;;;;4813334;29;20254;-42
2023/05/29 07:44:43;;;;;;;14.57;13.60;;;16.60;93.60;;;;;;4813033;29;20308;-43
2023/05/29 07:47:11;;;;;;;14.70;13.50;;;16.80;93.20;;;;;;4813452;29;20205;-42
2023/05/29 07:49:37;;;;;;;13.90;13.10;;;17.00;93.30;;;;;;4813209;29;20200;-47
2023/05/29 07:52:03;;;;;;;13.90;13.00;;;17.10;92.80;;;;;;4812861;29;20431;-41
2023/05/29 07:54:32;;;;;;;14.47;13.57;;;17.40;92.20;;;;;;4812943;29;20193;-43
2023/05/29 07:56:59;;;;;;;13.50;12.73;;;17.60;91.10;;;;;;4813156;29;21004;-47
2023/05/29 07:59:25;;;;;;;14.07;13.17;;;17.80;90.50;;;;;;4811116;29;20435;-44
2023/05/29 08:01:50;;;;;;;14.47;13.47;;;17.90;90.10;;;;;;4811895;29;20868;-43
2023/05/29 08:04:16;;;;;;;13.83;12.93;;;18.00;89.20;;;;;;4813171;29;20456;-51
2023/05/29 08:06:43;;;;;;;13.27;12.47;;;18.20;87.00;;;;;;4812847;29;20198;-45
2023/05/29 08:09:09;;;;;;;13.80;13.10;;;18.30;86.80;;;;;;4812947;29;20197;-43
2023/05/29 08:11:36;;;;;;;14.20;13.40;;;18.50;84.00;;;;;;4812783;29;20431;-44
2023/05/29 08:14:02;;;;;;;13.60;12.80;;;18.60;84.60;;;;;;4812606;29;20487;-43
2023/05/29 08:16:27;;;;;;;14.07;13.07;;;18.80;81.80;;;;;;4811557;29;21387;-46
2023/05/29 08:18:53;;;;;;;14.07;13.17;;;19.00;80.40;;;;;;4812750;29;20431;-43
2023/05/29 08:21:19;;;;;;;13.30;12.40;;;19.20;79.10;;;;;;4812688;29;20227;-46
2023/05/29 08:23:45;;;;;;;13.30;12.60;;;19.40;75.60;;;;;;4812368;29;20317;-43
2023/05/29 08:26:10;;;;;;;13.63;12.83;;;19.50;72.60;;;;;;4812265;29;20499;-43
2023/05/29 08:28:36;;;;;;;13.23;12.53;;;19.70;73.70;;;;;;4812241;29;20198;-47
2023/05/29 08:31:02;;;;;;;14.00;13.20;;;19.80;69.30;;;;;;4812454;29;20193;-45
2023/05/29 08:33:27;;;;;;;13.07;12.07;;;20.00;68.30;;;;;;4812738;29;20708;-46
2023/05/29 08:35:53;;;;;;;12.90;12.10;;;20.20;65.20;;;;;;4812372;29;20205;-43
2023/05/29 08:38:20;;;;;;;12.20;11.50;;;20.40;63.40;;;;;;4812605;29;20186;-45
2023/05/29 08:40:47;;;;;;;12.80;12.00;;;20.60;59.90;;;;;;4812746;29;20193;-48
2023/05/29 08:43:21;;;;;;;12.57;11.87;;;20.70;57.00;;;;;;4812441;29;20435;-47
2023/05/29 08:45:52;;;;;;;12.90;12.20;;;20.90;57.80;;;;;;4812283;29;20419;-47
2023/05/29 08:48:21;;;;;;;13.07;12.27;;;21.10;56.50;;;;;;4812374;29;20423;-46
2023/05/29 08:50:47;;;;;;;11.63;11.03;;;21.30;55.60;;;;;;4811985;29;20422;-45
2023/05/29 08:53:16;;;;;;;12.57;11.77;;;21.60;54.70;;;;;;4812388;29;20439;-44
2023/05/29 08:55:42;;;;;;;12.40;11.80;;;21.90;54.00;;;;;;4812358;29;20193;-45
2023/05/29 08:58:10;;;;;;;13.53;12.73;;;22.20;51.30;;;;;;4811433;29;20487;-43
2023/05/29 09:00:36;;;;;;;13.03;12.33;;;22.50;49.00;;;;;;4811527;29;20459;-47
2023/05/29 09:03:03;;;;;;;12.40;11.70;;;22.70;49.30;;;;;;4812107;29;20489;-44
2023/05/29 09:05:29;;;;;;;12.90;12.20;;;22.90;49.60;;;;;;4811953;29;20435;-45
2023/05/29 09:07:56;;;;;;;11.77;11.17;;;23.30;43.80;;;;;;4812200;29;20423;-44
2023/05/29 09:10:22;;;;;;;12.27;11.60;;;23.50;40.90;;;;;;4812314;29;20431;-43
2023/05/29 09:12:50;;;;;;;11.90;11.13;;;23.70;41.00;;;;;;4812217;29;20527;-46
2023/05/29 09:15:20;;;;;;;11.07;10.53;;;24.00;40.20;;;;;;4811840;29;20435;-43
2023/05/29 09:17:53;;;;;;;12.37;11.60;;;24.30;39.90;;;;;;4811796;29;20467;-47
2023/05/29 09:20:23;;;;;;;11.87;11.27;;;24.70;38.60;;;;;;4812001;29;20434;-48
2023/05/29 09:22:56;;;;;;;12.50;11.80;;;25.10;38.80;;;;;;4812071;29;21100;-47
2023/05/29 09:25:27;;;;;;;11.80;11.17;;;25.60;37.80;;;;;;4810289;29;20957;-44
2023/05/29 09:27:57;;;;;;;11.73;11.10;;;26.00;36.50;;;;;;4795192;29;20492;-47
2023/05/29 09:30:34;;;;;;;11.50;10.90;;;26.60;34.30;;;;;;4811890;29;20483;-46
2023/05/29 09:33:01;;;;;;;10.73;10.23;;;27.30;32.10;;;;;;4812440;29;20479;-44
2023/05/29 09:35:36;;;;;;;11.80;11.20;;;27.80;31.70;;;;;;4813648;29;20914;-44
2023/05/29 09:38:02;;;;;;;11.80;11.13;;;28.40;30.00;;;;;;4815145;29;20478;-47
2023/05/29 09:40:32;;;;;;;12.23;11.63;;;28.80;28.10;;;;;;4815227;29;20812;-48
2023/05/29 09:43:23;;;;;;;11.70;11.10;;;29.20;27.90;;;;;;4815473;29;20909;-47
2023/05/29 09:45:50;;;;;;;10.97;10.37;;;29.60;25.10;;;;;;4814836;29;20435;-42
2023/05/29 09:48:22;;;;;;;12.17;11.67;;;30.10;25.60;;;;;;4815369;29;20464;-48
2023/05/29 09:50:48;;;;;;;11.63;10.93;;;30.40;24.20;;;;;;4814878;29;20553;-45
2023/05/29 09:53:19;;;;;;;12.47;11.90;;;30.60;24.20;;;;;;4814405;29;20498;-45
2023/05/29 09:55:46;;;;;;;12.23;11.60;;;30.90;22.60;;;;;;4815076;29;21134;-48
2023/05/29 09:58:14;;;;;;;11.83;11.23;;;31.10;23.10;;;;;;4815248;29;21058;-49
2023/05/29 10:00:44;;;;;;;11.43;10.97;;;31.40;21.30;;;;;;4815072;29;21177;-48
2023/05/29 10:03:13;;;;;;;12.10;11.50;;;31.60;21.00;;;;;;4814627;29;20431;-46
2023/05/29 10:05:40;;;;;;;11.93;11.33;;;32.00;20.70;;;;;;4814608;29;20415;-47
2023/05/29 10:08:11;;;;;;;12.40;11.80;;;32.00;20.60;;;;;;4814676;29;20442;-44
2023/05/29 10:10:40;;;;;;;12.03;11.33;;;32.50;19.90;;;;;;4814608;29;21252;-48
2023/05/29 10:13:10;;;;;;;11.20;10.70;;;32.70;18.80;;;;;;4814831;29;20426;-48
2023/05/29 10:15:36;;;;;;;11.30;10.80;;;33.00;19.70;;;;;;4814935;29;20549;-48
2023/05/29 10:18:05;;;;;;;12.20;11.63;;;33.30;18.90;;;;;;4815362;29;20462;-47
2023/05/29 10:20:32;;;;;;;11.77;11.20;;;33.60;19.30;;;;;;4814956;29;20426;-47
2023/05/29 10:23:01;;;;;;;11.87;11.37;;;33.90;18.50;;;;;;4814589;29;20467;-45
2023/05/29 10:25:30;;;;;;;13.07;12.27;;;33.80;17.00;;;;;;4813536;29;20808;-46
2023/05/29 10:27:57;;;;;;;12.30;11.70;;;34.20;16.80;;;;;;4814388;29;20434;-48
2023/05/29 10:30:53;;;;;;;13.17;12.57;;;34.20;17.00;;;;;;4814101;29;20872;-47
2023/05/29 10:33:40;;;;;;;12.30;11.70;;;34.50;16.40;;;;;;4814245;29;20438;-45
2023/05/29 10:36:21;;;;;;;12.63;12.03;;;34.80;15.70;;;;;;4814211;29;20419;-49
2023/05/29 10:38:48;;;;;;;12.60;12.00;;;34.40;14.70;;;;;;4814269;29;20426;-45
2023/05/29 10:41:26;;;;;;;12.50;11.90;;;33.20;15.60;;;;;;4814292;29;20416;-43
2023/05/29 10:43:59;;;;;;;12.50;11.90;;;32.20;17.00;;;;;;4814374;29;20968;-45
2023/05/29 10:46:44;;;;;;;12.70;12.10;;;31.90;18.10;;;;;;4811574;29;21465;-44
2023/05/29 10:49:36;;;;;;;10.73;10.23;;;32.40;17.80;;;;;;4814270;29;20427;-47
2023/05/29 10:52:04;;;;;;;12.33;11.73;;;33.10;17.00;;;;;;4812621;29;20499;-45
2023/05/29 10:54:40;;;;;;;12.40;11.80;;;33.50;16.40;;;;;;4813201;29;20455;-42
2023/05/29 10:57:09;;;;;;;13.10;12.43;;;34.30;16.60;;;;;;4814044;29;20486;-45
2023/05/29 10:59:37;;;;;;;12.47;11.97;;;34.80;14.90;;;;;;4796456;29;20455;-44
2023/05/29 11:02:06;;;;;;;11.50;10.90;;;35.30;15.80;;;;;;4812526;29;20453;-44
2023/05/29 11:04:32;;;;;;;12.70;12.10;;;35.60;14.70;;;;;;4811688;29;20448;-46
2023/05/29 11:06:59;;;;;;;12.53;11.87;;;35.40;14.60;;;;;;4812097;29;20474;-46
2023/05/29 11:09:34;;;;;;;12.73;12.03;;;35.50;15.80;;;;;;4812855;29;20451;-45
2023/05/29 11:12:11;;;;;;;11.73;11.20;;;36.10;15.20;;;;;;4813551;29;20423;-45
2023/05/29 11:15:13;;;;;;;12.60;12.00;;;36.20;13.00;;;;;;4813365;29;20465;-44
2023/05/29 11:17:39;;;;;;;12.50;11.80;;;35.50;14.30;;;;;;4792889;29;20498;-45
2023/05/29 11:20:15;;;;;;;13.57;12.87;;;34.60;15.10;;;;;;4813416;29;21027;-43
2023/05/29 11:22:54;;;;;;;12.10;11.50;;;33.80;15.30;;;;;;4812930;29;20345;-43
2023/05/29 11:25:20;;;;;;;11.77;11.17;;;32.80;15.90;;;;;;4811408;29;20439;-45
2023/05/29 11:27:46;;;;;;;12.53;11.93;;;31.80;16.90;;;;;;4810655;29;20834;-45
2023/05/29 11:30:12;;;;;;;12.50;11.83;;;31.20;18.80;;;;;;4811955;29;20918;-43
2023/05/29 11:32:40;;;;;;;12.47;11.83;;;30.60;18.60;;;;;;4812352;29;20204;-44
2023/05/29 11:35:09;;;;;;;12.23;11.63;;;30.60;19.40;;;;;;4811995;29;20439;-49
2023/05/29 11:37:39;;;;;;;13.27;12.57;;;30.50;19.00;;;;;;4809410;29;21145;-46
2023/05/29 11:40:07;;;;;;;12.80;12.10;;;30.60;19.10;;;;;;4811405;29;20457;-45
2023/05/29 11:42:33;;;;;;;12.40;11.80;;;30.80;18.80;;;;;;4811372;29;20446;-46
2023/05/29 11:45:11;;;;;;;13.23;12.50;;;30.60;19.30;;;;;;4810644;29;20447;-43
2023/05/29 11:47:52;;;;;;;12.70;12.00;;;30.50;19.40;;;;;;4812111;29;20317;-45
2023/05/29 11:50:23;;;;;;;11.73;11.23;;;30.50;19.40;;;;;;4795415;29;20435;-45
2023/05/29 11:52:51;;;;;;;13.53;12.83;;;30.50;18.90;;;;;;4811688;29;20451;-41
2023/05/29 11:55:18;;;;;;;14.37;13.47;;;30.50;19.70;;;;;;4811734;29;21068;-46
2023/05/29 11:57:43;;;;;;;11.97;11.43;;;30.40;19.40;;;;;;4812752;29;20431;-42
2023/05/29 12:00:14;;;;;;;12.70;12.00;;;30.10;19.20;;;;;;4812538;29;20484;-51
2023/05/29 12:02:40;;;;;;;12.27;11.67;;;30.10;19.40;;;;;;4812495;29;20197;-45
2023/05/29 12:05:08;;;;;;;12.40;11.80;;;29.90;19.10;;;;;;4812204;29;20437;-44
2023/05/29 12:07:35;;;;;;;12.77;12.07;;;29.80;19.80;;;;;;4812134;29;20487;-44
2023/05/29 12:10:11;;;;;;;12.50;11.90;;;29.90;20.00;;;;;;4811191;29;20459;-45
2023/05/29 12:12:36;;;;;;;12.93;12.33;;;30.20;20.00;;;;;;4812831;29;20437;-45
2023/05/29 12:15:05;;;;;;;11.63;11.13;;;30.10;19.40;;;;;;4812183;29;20427;-46
2023/05/29 12:17:31;;;;;;;12.60;12.00;;;29.90;19.60;;;;;;4812091;29;20288;-42
2023/05/29 12:19:57;;;;;;;12.97;12.27;;;29.60;19.80;;;;;;4812411;29;20450;-42
2023/05/29 12:22:36;;;;;;;12.97;12.27;;;29.60;20.30;;;;;;4812250;29;20915;-43
2023/05/29 12:25:06;;;;;;;12.63;11.83;;;29.20;20.40;;;;;;4812807;29;20250;-47
2023/05/29 12:27:32;;;;;;;12.07;11.37;;;29.20;21.30;;;;;;4812853;29;20553;-45
2023/05/29 12:30:05;;;;;;;12.57;11.97;;;29.30;20.80;;;;;;4812598;29;20427;-43
2023/05/29 12:32:41;;;;;;;11.83;11.23;;;29.60;20.50;;;;;;4812464;29;20446;-44
2023/05/29 12:35:28;;;;;;;12.87;12.17;;;29.90;19.20;;;;;;4812062;29;20447;-46